Time;durP1;ratioP1;P1;durP2;ratioP2;P2;SDS_P1;SDS_P2;PMS_P1;PMS_P2;Temp;Humidity;BMP_temperature;BMP_pressure;BME280_temperature;BME280_humidity;BME280_pressure;Samples;Min_cycle;Max_cycle;Signal;HPM_P1;HPM_P2
2023/07/03 00:02:07;;;;;;;11.25;3.83;;;;;;;18.09;48.69;99307.09;5050618;28;20250;-77
2023/07/03 00:04:35;;;;;;;10.03;3.30;;;;;;;17.82;49.00;99309.06;5048466;28;20061;-76
2023/07/03 00:07:05;;;;;;;19.15;4.38;;;;;;;17.86;49.54;99309.22;5050855;28;20029;-77
2023/07/03 00:09:30;;;;;;;22.30;4.75;;;;;;;17.84;49.49;99304.03;5050663;28;20466;-76
2023/07/03 00:11:56;;;;;;;11.98;3.40;;;;;;;18.00;49.45;99309.03;5051116;28;20104;-76
2023/07/03 00:14:21;;;;;;;12.53;3.70;;;;;;;17.97;48.84;99307.78;5050083;28;20128;-78
2023/07/03 00:16:46;;;;;;;20.70;3.90;;;;;;;17.75;49.73;99308.75;5049716;28;20278;-77
2023/07/03 00:19:13;;;;;;;17.27;4.03;;;;;;;17.88;49.07;99306.16;5050369;28;20098;-77
2023/07/03 00:21:45;;;;;;;10.25;2.85;;;;;;;17.70;49.68;99308.91;5051419;28;20254;-77
2023/07/03 00:24:11;;;;;;;10.98;2.85;;;;;;;17.56;49.79;99307.13;5050563;28;20651;-77
2023/07/03 00:26:37;;;;;;;18.25;4.10;;;;;;;17.79;49.83;99309.72;5051720;28;20127;-81
2023/07/03 00:29:03;;;;;;;12.30;3.47;;;;;;;17.71;50.02;99307.78;5052948;28;20021;-82
2023/07/03 00:31:28;;;;;;;20.33;5.65;;;;;;;17.76;49.80;99299.34;5051977;28;20024;-81
2023/07/03 00:33:53;;;;;;;13.60;3.47;;;;;;;17.68;50.12;99302.91;5052781;28;20045;-82
2023/07/03 00:36:18;;;;;;;13.87;3.90;;;;;;;17.80;49.99;99310.50;5052764;28;20061;-81
2023/07/03 00:38:43;;;;;;;22.67;4.10;;;;;;;17.71;49.68;99310.53;5051293;28;20292;-81
2023/07/03 00:41:09;;;;;;;16.07;4.10;;;;;;;17.60;50.11;99305.34;5052834;28;20304;-82
2023/07/03 00:43:40;;;;;;;10.37;3.37;;;;;;;17.58;50.34;99296.59;5052560;28;20254;-81
2023/07/03 00:46:10;;;;;;;13.05;3.00;;;;;;;17.37;50.53;99299.97;5053093;28;20246;-81
2023/07/03 00:48:38;;;;;;;14.88;4.47;;;;;;;17.23;50.92;99299.28;5052650;28;20470;-80
2023/07/03 00:51:03;;;;;;;8.70;3.53;;;;;;;17.03;51.53;99295.97;5052740;28;20032;-81
2023/07/03 00:53:28;;;;;;;14.68;4.25;;;;;;;17.14;51.67;99305.63;5052440;28;20033;-81
2023/07/03 00:55:54;;;;;;;11.53;3.43;;;;;;;17.14;51.44;99297.34;5052817;28;20033;-81
2023/07/03 00:58:19;;;;;;;10.37;4.07;;;;;;;17.13;51.41;99306.72;5052226;28;20265;-81
2023/07/03 01:00:55;;;;;;;12.88;4.30;;;;;;;17.25;51.27;99311.63;5052536;28;20264;-82
2023/07/03 01:03:44;;;;;;;13.27;4.18;;;;;;;17.18;51.48;99307.72;5052612;28;20382;-81
2023/07/03 01:06:19;;;;;;;22.08;4.45;;;;;;;17.20;51.66;99305.44;5044641;28;20045;-82
2023/07/03 01:08:48;;;;;;;11.45;3.83;;;;;;;17.26;51.56;99307.75;5049062;28;20025;-82
2023/07/03 01:11:14;;;;;;;13.85;4.32;;;;;;;17.06;51.90;99309.13;5051064;28;20059;-82
2023/07/03 01:13:41;;;;;;;12.85;4.25;;;;;;;17.00;52.10;99299.38;5052573;28;20021;-82
2023/07/03 01:16:07;;;;;;;10.05;2.78;;;;;;;17.24;51.95;99300.94;5051030;28;20031;-82
2023/07/03 01:18:33;;;;;;;8.48;2.78;;;;;;;17.23;52.21;99293.78;5046983;28;20099;-82
2023/07/03 01:21:05;;;;;;;9.32;2.85;;;;;;;17.30;51.83;99296.88;5051029;28;20032;-81
2023/07/03 01:23:43;;;;;;;17.48;4.90;;;;;;;17.35;51.14;99302.22;5052799;28;20124;-82
2023/07/03 01:26:11;;;;;;;15.07;3.42;;;;;;;17.12;52.20;99294.13;5056104;28;20033;-82
2023/07/03 01:28:37;;;;;;;11.25;4.15;;;;;;;17.15;52.10;99293.47;5055816;28;20029;-82
2023/07/03 01:31:07;;;;;;;29.98;5.15;;;;;;;17.20;51.99;99294.44;5055605;28;20036;-82
2023/07/03 01:33:34;;;;;;;23.60;4.38;;;;;;;17.15;52.11;99298.97;5067328;28;20035;-82
2023/07/03 01:36:00;;;;;;;14.45;4.28;;;;;;;17.05;52.79;99296.47;5054937;28;20033;-81
2023/07/03 01:38:28;;;;;;;13.73;3.97;;;;;;;17.03;52.61;99302.31;5055783;28;20025;-81
2023/07/03 01:40:54;;;;;;;16.70;4.43;;;;;;;17.08;52.71;99298.59;5054516;28;20021;-82
2023/07/03 01:43:20;;;;;;;12.95;3.60;;;;;;;17.08;52.73;99293.09;5055572;28;20585;-82
2023/07/03 01:45:48;;;;;;;11.68;3.78;;;;;;;17.21;52.27;99296.03;5056297;28;20025;-82
2023/07/03 01:48:15;;;;;;;9.23;3.13;;;;;;;17.20;52.34;99297.19;5055132;28;20474;-81
2023/07/03 01:50:41;;;;;;;10.57;2.85;;;;;;;17.04;52.34;99292.13;5055430;28;20032;-82
2023/07/03 01:53:26;;;;;;;15.38;5.18;;;;;;;16.99;52.65;99290.31;5055532;28;20531;-81
2023/07/03 01:56:05;;;;;;;15.57;4.75;;;;;;;17.05;52.69;99290.97;5058680;28;20394;-81
2023/07/03 01:58:38;;;;;;;16.52;4.38;;;;;;;16.95;53.21;99294.84;5057743;28;20432;-81
2023/07/03 02:01:07;;;;;;;12.57;4.47;;;;;;;16.91;53.12;99289.16;5054796;28;20021;-81
2023/07/03 02:03:42;;;;;;;12.55;3.53;;;;;;;16.78;53.98;99284.59;5054078;28;20028;-82
2023/07/03 02:06:21;;;;;;;18.85;4.57;;;;;;;16.87;53.56;99282.66;5056404;28;20040;-81
2023/07/03 02:08:49;;;;;;;15.18;4.10;;;;;;;16.81;53.80;99283.94;5053372;28;20025;-81
2023/07/03 02:11:21;;;;;;;15.73;3.70;;;;;;;16.74;53.96;99284.41;5054037;28;20059;-81
2023/07/03 02:13:47;;;;;;;10.98;3.50;;;;;;;16.89;53.73;99279.59;5054188;28;20063;-81
2023/07/03 02:16:15;;;;;;;17.10;4.45;;;;;;;16.79;53.89;99284.28;5053779;28;20065;-81
2023/07/03 02:18:40;;;;;;;14.95;5.38;;;;;;;16.72;54.10;99291.38;5053582;28;20033;-81
2023/07/03 02:21:06;;;;;;;21.38;6.80;;;;;;;16.45;54.82;99283.78;5054765;28;20494;-81
2023/07/03 02:23:32;;;;;;;18.33;4.72;;;;;;;16.75;54.63;99290.72;5054113;28;20083;-82
2023/07/03 02:25:57;;;;;;;13.05;3.90;;;;;;;16.66;55.03;99294.25;5055135;28;20033;-82
2023/07/03 02:28:22;;;;;;;15.05;3.08;;;;;;;16.69;54.81;99282.63;5058663;28;20021;-81
2023/07/03 02:30:48;;;;;;;11.45;3.80;;;;;;;16.57;54.85;99291.47;5055123;28;20486;-81
2023/07/03 02:33:13;;;;;;;12.20;3.33;;;;;;;16.43;55.41;99286.03;5054851;28;20382;-80
2023/07/03 02:35:41;;;;;;;15.37;4.47;;;;;;;16.67;55.43;99290.38;5054661;28;20276;-82
2023/07/03 02:38:06;;;;;;;24.13;5.13;;;;;;;16.76;54.64;99286.84;5054737;28;20264;-82
2023/07/03 02:40:33;;;;;;;13.45;3.85;;;;;;;16.88;54.62;99287.03;5054873;28;20088;-81
2023/07/03 02:42:59;;;;;;;15.20;4.90;;;;;;;16.89;54.40;99285.91;5054783;28;20632;-82
2023/07/03 02:45:24;;;;;;;15.90;4.68;;;;;;;16.92;54.69;99276.22;5054751;28;20024;-82
2023/07/03 02:47:49;;;;;;;24.45;5.22;;;;;;;16.91;54.48;99272.66;5054867;28;20082;-81
2023/07/03 02:50:14;;;;;;;13.10;4.30;;;;;;;16.81;54.66;99281.19;5054391;28;20509;-81
2023/07/03 02:52:40;;;;;;;11.17;2.87;;;;;;;16.72;55.25;99277.59;5056818;28;20029;-81
2023/07/03 02:55:05;;;;;;;16.23;4.93;;;;;;;16.85;54.87;99275.84;5054854;28;20278;-81
2023/07/03 02:57:31;;;;;;;13.77;3.78;;;;;;;16.77;54.92;99280.19;5054559;28;20053;-82
2023/07/03 02:59:56;;;;;;;15.63;3.53;;;;;;;16.79;55.01;99280.69;5053941;28;20052;-81
2023/07/03 03:02:21;;;;;;;11.73;3.73;;;;;;;16.78;55.36;99268.88;5054399;28;20262;-81
2023/07/03 03:04:47;;;;;;;12.83;4.13;;;;;;;17.05;54.98;99271.69;5054446;28;20043;-82
2023/07/03 03:07:13;;;;;;;11.85;3.20;;;;;;;16.98;54.65;99276.88;5053038;28;20257;-81
2023/07/03 03:09:40;;;;;;;19.05;3.85;;;;;;;16.85;55.14;99273.09;5053719;28;20025;-83
2023/07/03 03:12:06;;;;;;;14.18;3.38;;;;;;;16.83;54.61;99278.94;5054086;28;20036;-81
2023/07/03 03:14:31;;;;;;;13.82;5.18;;;;;;;16.79;55.61;99270.50;5055655;28;20048;-81
2023/07/03 03:16:57;;;;;;;18.85;5.80;;;;;;;16.63;56.05;99266.56;5052783;28;20037;-81
2023/07/03 03:19:22;;;;;;;27.55;4.47;;;;;;;16.55;57.11;99266.22;5052251;28;20029;-81
2023/07/03 03:21:49;;;;;;;15.18;5.13;;;;;;;16.80;56.02;99268.56;5053904;28;20064;-82
2023/07/03 03:24:15;;;;;;;11.77;4.10;;;;;;;16.78;55.97;99263.38;5053856;28;20029;-81
2023/07/03 03:26:40;;;;;;;12.38;4.07;;;;;;;16.55;56.54;99260.72;5053722;28;20017;-81
2023/07/03 03:29:05;;;;;;;14.73;4.77;;;;;;;16.38;57.21;99258.69;5057162;28;20482;-82
2023/07/03 03:31:31;;;;;;;14.83;4.27;;;;;;;16.65;56.86;99258.78;5053643;28;20033;-81
2023/07/03 03:33:56;;;;;;;19.60;4.82;;;;;;;16.80;56.26;99249.31;5053894;28;20324;-82
2023/07/03 03:36:21;;;;;;;9.43;3.67;;;;;;;16.72;56.51;99244.59;5053540;28;20072;-81
2023/07/03 03:38:46;;;;;;;10.07;3.63;;;;;;;16.43;57.23;99247.53;5052940;28;20262;-81
2023/07/03 03:41:12;;;;;;;11.73;3.43;;;;;;;16.60;57.26;99253.44;5053354;28;20266;-82
2023/07/03 03:43:37;;;;;;;15.33;5.50;;;;;;;16.56;57.51;99248.56;5053395;28;20258;-82
2023/07/03 03:46:02;;;;;;;17.30;4.22;;;;;;;16.36;58.13;99252.69;5052746;28;20258;-81
2023/07/03 03:48:30;;;;;;;13.48;4.50;;;;;;;16.37;58.15;99254.31;5053187;28;20520;-81
2023/07/03 03:50:55;;;;;;;10.93;3.65;;;;;;;16.15;58.95;99264.22;5055570;28;20083;-82
2023/07/03 03:53:21;;;;;;;18.15;4.93;;;;;;;16.28;59.06;99261.72;5052768;28;20036;-82
2023/07/03 03:55:53;;;;;;;11.52;4.22;;;;;;;16.41;58.29;99254.50;5052864;28;20112;-77
2023/07/03 03:58:19;;;;;;;16.52;4.03;;;;;;;16.34;58.90;99254.94;5053372;28;20381;-82
2023/07/03 04:00:45;;;;;;;14.15;3.55;;;;;;;16.39;58.58;99263.06;5053257;28;20085;-81
2023/07/03 04:03:12;;;;;;;10.90;2.85;;;;;;;16.34;58.77;99255.75;5053422;28;20036;-81
2023/07/03 04:05:41;;;;;;;20.23;4.35;;;;;;;16.42;59.13;99256.94;5052941;28;20505;-81
2023/07/03 04:08:07;;;;;;;12.27;4.10;;;;;;;16.37;59.23;99265.34;5050929;28;20658;-78
2023/07/03 04:10:32;;;;;;;22.45;4.78;;;;;;;16.25;59.18;99259.59;5051234;28;20121;-76
2023/07/03 04:12:57;;;;;;;9.87;3.70;;;;;;;16.62;58.81;99268.50;5050721;28;20024;-76
2023/07/03 04:15:23;;;;;;;20.20;5.77;;;;;;;16.66;58.46;99274.16;5050341;28;20374;-76
2023/07/03 04:17:49;;;;;;;21.15;6.15;;;;;;;16.25;59.66;99268.63;5051665;28;20254;-76
2023/07/03 04:20:14;;;;;;;14.98;4.15;;;;;;;16.30;59.91;99267.69;5050558;28;20033;-77
2023/07/03 04:22:41;;;;;;;16.88;3.58;;;;;;;16.49;59.79;99277.66;5050471;28;20024;-77
2023/07/03 04:25:07;;;;;;;12.40;3.83;;;;;;;16.36;60.01;99276.63;5050379;28;20039;-77
2023/07/03 04:27:33;;;;;;;11.73;4.35;;;;;;;16.33;60.33;99280.84;5050198;28;20399;-77
2023/07/03 04:29:58;;;;;;;11.90;4.30;;;;;;;16.29;60.47;99274.34;5050107;28;20086;-76
2023/07/03 04:32:23;;;;;;;10.73;3.80;;;;;;;16.08;60.96;99278.44;5050935;28;20269;-76
2023/07/03 04:34:48;;;;;;;16.23;5.38;;;;;;;15.96;61.45;99278.97;5050972;28;20312;-76
2023/07/03 04:37:14;;;;;;;15.00;5.30;;;;;;;16.05;62.03;99287.28;5049158;28;20036;-77
2023/07/03 04:39:39;;;;;;;15.57;5.40;;;;;;;16.19;61.65;99281.72;5050281;28;20309;-76
2023/07/03 04:42:07;;;;;;;11.10;3.13;;;;;;;16.24;61.49;99277.22;5050465;28;20139;-77
2023/07/03 04:44:33;;;;;;;23.65;6.00;;;;;;;16.38;61.17;99275.19;5053369;28;20023;-77
2023/07/03 04:47:04;;;;;;;14.48;3.90;;;;;;;16.33;61.56;99276.13;5060209;28;20025;-76
2023/07/03 04:49:30;;;;;;;15.50;5.07;;;;;;;16.19;61.82;99265.22;5050359;28;20029;-77
2023/07/03 04:51:55;;;;;;;24.88;5.30;;;;;;;16.20;62.11;99272.34;5050105;28;20036;-77
2023/07/03 04:54:20;;;;;;;29.10;5.43;;;;;;;16.24;62.44;99277.22;5049446;28;20694;-77
2023/07/03 04:56:48;;;;;;;15.15;4.85;;;;;;;16.08;63.26;99263.88;5052676;28;20071;-76
2023/07/03 04:59:14;;;;;;;16.67;5.18;;;;;;;16.31;62.81;99270.13;5061325;28;20033;-77
2023/07/03 05:01:42;;;;;;;19.42;5.28;;;;;;;16.17;63.01;99264.72;5054985;28;20025;-77
2023/07/03 05:04:08;;;;;;;14.50;3.85;;;;;;;16.27;62.86;99276.59;5054484;28;20522;-77
2023/07/03 05:06:33;;;;;;;22.55;4.57;;;;;;;16.39;62.94;99276.00;5055189;28;20064;-80
2023/07/03 05:08:59;;;;;;;13.38;3.80;;;;;;;16.37;63.14;99262.59;5056235;28;20036;-81
2023/07/03 05:11:24;;;;;;;20.42;4.50;;;;;;;16.66;62.28;99271.41;5056934;28;20025;-81
2023/07/03 05:13:49;;;;;;;12.70;3.77;;;;;;;16.72;62.41;99281.16;5056298;28;20111;-81
2023/07/03 05:16:14;;;;;;;18.70;5.67;;;;;;;16.75;61.97;99279.72;5055956;28;20273;-80
2023/07/03 05:18:40;;;;;;;18.90;6.28;;;;;;;16.64;62.58;99282.75;5055604;28;20029;-81
2023/07/03 05:21:06;;;;;;;14.32;4.97;;;;;;;16.70;62.76;99277.91;5055912;28;20044;-81
2023/07/03 05:23:31;;;;;;;9.10;4.65;;;;;;;16.72;62.42;99291.38;5056029;28;20624;-81
2023/07/03 05:25:57;;;;;;;26.73;5.85;;;;;;;16.57;63.00;99280.47;5055992;28;20044;-81
2023/07/03 05:28:24;;;;;;;18.55;5.45;;;;;;;16.69;62.75;99281.81;5058491;28;20090;-81
2023/07/03 05:30:56;;;;;;;19.80;5.78;;;;;;;16.75;62.55;99285.22;5055938;28;20150;-81
2023/07/03 05:33:22;;;;;;;18.65;5.03;;;;;;;16.82;62.72;99285.56;5055611;28;20025;-80
2023/07/03 05:35:47;;;;;;;21.92;6.25;;;;;;;16.99;62.25;99286.75;5055522;28;20470;-81
2023/07/03 05:38:13;;;;;;;11.57;4.00;;;;;;;16.89;62.66;99296.94;5046690;28;20047;-82
2023/07/03 05:40:38;;;;;;;21.27;5.43;;;;;;;17.06;62.42;99300.88;5054009;28;20562;-81
2023/07/03 05:43:03;;;;;;;14.30;4.43;;;;;;;16.86;62.70;99300.31;5060314;28;20262;-81
2023/07/03 05:45:28;;;;;;;24.57;6.57;;;;;;;16.86;62.59;99300.31;5054883;28;20270;-81
2023/07/03 05:47:54;;;;;;;11.83;4.13;;;;;;;16.87;62.78;99307.44;5055185;28;20262;-82
2023/07/03 05:50:19;;;;;;;16.95;5.18;;;;;;;16.87;62.83;99303.88;5054167;28;20266;-81
2023/07/03 05:52:44;;;;;;;14.57;5.33;;;;;;;16.90;62.58;99304.03;5055216;28;20048;-81
2023/07/03 05:55:10;;;;;;;21.93;4.83;;;;;;;17.06;62.46;99306.38;5053459;28;20282;-81
2023/07/03 05:57:36;;;;;;;15.93;4.22;;;;;;;16.77;63.12;99297.53;5045290;28;20735;-81
2023/07/03 06:00:03;;;;;;;25.42;5.43;;;;;;;16.74;62.96;99303.66;5044737;28;20500;-81
2023/07/03 06:02:29;;;;;;;15.32;4.85;;;;;;;16.94;63.19;99304.25;5045458;28;20486;-81
2023/07/03 06:04:54;;;;;;;14.77;4.33;;;;;;;16.92;63.36;99312.78;5044901;28;20102;-82
2023/07/03 06:07:19;;;;;;;17.80;4.43;;;;;;;17.22;62.59;99311.44;5045609;28;20761;-82
2023/07/03 06:09:45;;;;;;;17.37;4.80;;;;;;;16.95;63.25;99316.03;5044712;28;20340;-80
2023/07/03 06:12:11;;;;;;;8.95;3.72;;;;;;;16.68;63.56;99325.00;5050259;28;20739;-81
2023/07/03 06:14:36;;;;;;;16.75;4.88;;;;;;;16.56;64.33;99316.53;5050179;28;20049;-81
2023/07/03 06:17:01;;;;;;;21.67;5.53;;;;;;;16.63;64.99;99318.84;5050304;28;20029;-78
2023/07/03 06:19:28;;;;;;;24.65;6.85;;;;;;;16.49;65.00;99329.94;5050406;28;20866;-78
2023/07/03 06:21:54;;;;;;;14.23;4.93;;;;;;;16.64;64.75;99332.28;5048980;28;20106;-78
2023/07/03 06:24:19;;;;;;;21.67;6.75;;;;;;;16.96;64.23;99328.69;5048172;28;20520;-78
2023/07/03 06:26:44;;;;;;;15.75;5.03;;;;;;;17.06;63.63;99331.16;5050401;28;20048;-83
2023/07/03 06:29:12;;;;;;;13.48;5.28;;;;;;;16.91;64.14;99333.22;5050847;28;20032;-80
2023/07/03 06:31:37;;;;;;;23.70;6.68;;;;;;;16.92;63.69;99328.53;5046372;28;20041;-81
2023/07/03 06:34:03;;;;;;;17.90;4.07;;;;;;;17.18;63.18;99335.25;5045748;28;20134;-81
2023/07/03 06:36:29;;;;;;;11.85;4.15;;;;;;;17.10;62.93;99334.91;5045231;28;20037;-81
2023/07/03 06:38:55;;;;;;;21.45;5.43;;;;;;;17.07;63.12;99331.94;5043252;28;20033;-77
2023/07/03 06:41:23;;;;;;;23.08;4.65;;;;;;;17.19;63.32;99326.66;5044250;28;20069;-75
2023/07/03 06:43:49;;;;;;;11.55;4.30;;;;;;;16.97;63.38;99324.78;5044098;28;20032;-76
2023/07/03 06:46:14;;;;;;;15.68;5.40;;;;;;;17.07;63.70;99331.94;5044137;28;20593;-80
2023/07/03 06:48:40;;;;;;;13.57;4.65;;;;;;;17.21;63.53;99340.13;5043860;28;20147;-74
2023/07/03 06:51:07;;;;;;;18.25;5.63;;;;;;;17.15;63.98;99332.00;5044018;28;20391;-75
2023/07/03 06:53:33;;;;;;;14.85;3.90;;;;;;;17.27;63.38;99339.66;5043866;28;20124;-77
2023/07/03 06:56:00;;;;;;;14.55;3.80;;;;;;;17.30;63.28;99335.47;5043709;28;20500;-77
2023/07/03 06:58:26;;;;;;;15.00;4.25;;;;;;;17.22;63.66;99336.25;5043343;28;20029;-76
2023/07/03 07:00:52;;;;;;;21.23;4.28;;;;;;;17.00;64.47;99343.44;5043671;28;20034;-76
2023/07/03 07:03:17;;;;;;;18.95;4.93;;;;;;;17.15;64.28;99337.53;5043664;28;20512;-78
2023/07/03 07:05:42;;;;;;;15.45;3.88;;;;;;;17.22;64.40;99341.75;5043406;28;20049;-77
2023/07/03 07:08:08;;;;;;;15.10;5.28;;;;;;;17.18;64.20;99347.09;5043328;28;20044;-78
2023/07/03 07:10:38;;;;;;;18.08;3.63;;;;;;;17.45;63.80;99350.69;5043754;28;20528;-78
2023/07/03 07:13:03;;;;;;;14.30;4.15;;;;;;;17.68;63.37;99336.78;5043595;28;20041;-77
2023/07/03 07:15:28;;;;;;;13.17;4.23;;;;;;;17.68;62.99;99338.72;5043022;28;20060;-78
2023/07/03 07:17:53;;;;;;;23.40;4.13;;;;;;;17.75;62.27;99341.84;5043177;28;20658;-77
2023/07/03 07:20:19;;;;;;;16.00;3.77;;;;;;;17.57;62.97;99341.84;5042105;28;20269;-76
2023/07/03 07:22:44;;;;;;;12.73;3.63;;;;;;;17.93;62.53;99350.09;5043406;28;20292;-76
2023/07/03 07:25:09;;;;;;;16.90;4.67;;;;;;;17.73;61.82;99341.34;5043375;28;20262;-77
2023/07/03 07:27:34;;;;;;;20.73;7.47;;;;;;;17.57;61.90;99341.84;5043466;28;20281;-75
2023/07/03 07:30:00;;;;;;;15.68;4.57;;;;;;;17.72;62.29;99339.72;5042530;28;20258;-75
2023/07/03 07:32:25;;;;;;;14.25;5.82;;;;;;;17.94;61.69;99347.00;5043101;28;20938;-75
2023/07/03 07:34:50;;;;;;;13.18;5.10;;;;;;;17.98;61.41;99338.88;5043165;28;20110;-74
2023/07/03 07:37:16;;;;;;;26.77;4.80;;;;;;;18.22;60.82;99343.13;5042302;28;20393;-76
2023/07/03 07:39:42;;;;;;;17.43;5.30;;;;;;;18.39;60.48;99347.78;5042384;28;20269;-76
2023/07/03 07:42:07;;;;;;;14.68;4.30;;;;;;;18.12;59.81;99344.25;5042573;28;20308;-76
2023/07/03 07:44:33;;;;;;;421.85;394.42;;;;;;;18.17;59.02;99340.53;5042649;28;20478;-76
2023/07/03 07:46:58;;;;;;;516.20;490.40;;;;;;;18.27;59.87;99337.44;5042779;28;20044;-77
2023/07/03 07:49:24;;;;;;;580.85;549.22;;;;;;;18.45;59.12;99348.44;5042603;28;20048;-77
2023/07/03 07:51:49;;;;;;;283.38;270.08;;;;;;;18.50;59.18;99344.69;5042838;28;20037;-77
2023/07/03 07:54:14;;;;;;;228.63;219.17;;;;;;;18.76;58.84;99333.56;5043245;28;20033;-76
2023/07/03 07:56:39;;;;;;;93.40;87.40;;;;;;;18.65;57.48;99337.84;5043021;28;20501;-77
2023/07/03 07:59:05;;;;;;;22.53;20.30;;;;;;;18.53;58.35;99344.84;5041659;28;20086;-76
2023/07/03 08:01:30;;;;;;;33.80;31.35;;;;;;;18.53;58.03;99336.56;5042940;28;20284;-75
2023/07/03 08:03:56;;;;;;;26.17;23.10;;;;;;;18.61;58.13;99348.69;5042496;28;20056;-77
2023/07/03 08:06:21;;;;;;;11.77;4.50;;;;;;;18.66;57.97;99336.69;5042969;28;20068;-77
2023/07/03 08:08:46;;;;;;;17.17;4.68;;;;;;;18.72;57.67;99335.38;5042445;28;20044;-77
2023/07/03 08:11:13;;;;;;;17.95;4.05;;;;;;;18.60;57.21;99341.56;5042814;28;20053;-75
2023/07/03 08:13:39;;;;;;;12.32;5.10;;;;;;;18.63;57.09;99340.13;5043031;28;20082;-77
2023/07/03 08:16:06;;;;;;;10.80;3.35;;;;;;;18.87;57.12;99342.31;5042245;28;20051;-76
2023/07/03 08:18:31;;;;;;;19.95;6.65;;;;;;;18.95;56.40;99340.63;5041576;28;20485;-77
2023/07/03 08:20:56;;;;;;;12.10;3.90;;;;;;;19.02;55.06;99338.16;5042628;28;20087;-77
2023/07/03 08:23:22;;;;;;;13.38;3.38;;;;;;;19.00;53.39;99342.38;5041885;28;20529;-79
2023/07/03 08:25:52;;;;;;;20.90;5.47;;;;;;;18.99;53.23;99335.25;5042488;28;20050;-76
2023/07/03 08:28:18;;;;;;;14.05;3.72;;;;;;;18.84;53.43;99350.41;5042135;28;20283;-76
2023/07/03 08:30:43;;;;;;;8.55;3.42;;;;;;;18.80;53.85;99342.00;5043111;28;20471;-76
2023/07/03 08:33:08;;;;;;;12.20;3.80;;;;;;;18.69;54.01;99349.84;5046982;28;20481;-79
2023/07/03 08:35:34;;;;;;;20.05;3.28;;;;;;;18.53;53.52;99347.59;5046558;28;20281;-77
2023/07/03 08:38:00;;;;;;;13.37;4.20;;;;;;;18.44;54.72;99338.53;5046023;28;20055;-74
2023/07/03 08:40:25;;;;;;;12.15;3.55;;;;;;;18.63;54.62;99351.94;5046701;28;20277;-76
2023/07/03 08:42:56;;;;;;;13.70;5.63;;;;;;;18.42;54.75;99354.63;5046083;28;20029;-76
2023/07/03 08:45:28;;;;;;;10.63;4.18;;;;;;;18.35;55.20;99355.09;5046179;28;20063;-81
2023/07/03 08:47:55;;;;;;;14.23;6.03;;;;;;;18.42;53.85;99351.84;5046797;28;20045;-77
2023/07/03 08:50:22;;;;;;;15.55;4.53;;;;;;;18.50;53.66;99353.78;5045549;28;20032;-76
2023/07/03 08:53:01;;;;;;;21.13;3.83;;;;;;;18.83;53.44;99348.81;5045947;28;20402;-76
2023/07/03 08:55:34;;;;;;;24.50;4.45;;;;;;;19.21;52.87;99353.53;5046566;28;20033;-77
2023/07/03 08:58:00;;;;;;;;;;;;;;;19.31;52.42;99357.84;5045955;28;20087;-76
2023/07/03 09:00:29;;;;;;;19.10;4.03;;;;;;;19.17;51.15;99351.75;5045597;28;20333;-77
2023/07/03 09:03:22;;;;;;;26.27;4.65;;;;;;;19.42;51.57;99363.00;5046087;28;20045;-76
2023/07/03 09:06:11;;;;;;;25.63;4.55;;;;;;;19.28;51.31;99366.84;5046224;28;20120;-76
2023/07/03 09:08:49;;;;;;;13.43;3.28;;;;;;;19.18;50.89;99369.97;5045699;28;20044;-77
2023/07/03 09:11:17;;;;;;;9.80;4.00;;;;;;;19.27;50.71;99372.66;5045878;28;20037;-76
2023/07/03 09:13:47;;;;;;;11.45;3.83;;;;;;;19.51;51.35;99374.00;5045989;28;20052;-76
2023/07/03 09:16:19;;;;;;;8.65;3.53;;;;;;;19.39;50.38;99370.00;5045805;28;20032;-76
2023/07/03 09:19:09;;;;;;;12.32;3.50;;;;;;;19.22;51.12;99368.94;5045053;28;20056;-76
2023/07/03 09:21:36;;;;;;;10.02;3.30;;;;;;;19.28;51.19;99374.31;5045752;28;20102;-76
2023/07/03 09:24:16;;;;;;;19.80;4.05;;;;;;;18.96;50.59;99372.63;5045575;28;20036;-77
2023/07/03 09:26:48;;;;;;;11.35;4.53;;;;;;;19.11;50.93;99364.94;5045825;28;20049;-76
2023/07/03 09:29:13;;;;;;;24.77;3.30;;;;;;;19.22;50.11;99366.19;5044786;28;20036;-78
2023/07/03 09:31:38;;;;;;;15.25;4.40;;;;;;;19.64;49.94;99372.94;5044814;28;20095;-76
2023/07/03 09:34:04;;;;;;;12.27;3.67;;;;;;;19.83;49.09;99371.66;5044932;28;20222;-75
2023/07/03 09:36:32;;;;;;;10.23;3.70;;;;;;;19.65;48.68;99373.75;5045460;28;20504;-77
2023/07/03 09:39:14;;;;;;;11.85;3.38;;;;;;;19.44;48.97;99374.53;5044798;28;20366;-76
2023/07/03 09:41:40;;;;;;;22.58;3.25;;;;;;;19.35;49.09;99374.56;5045224;28;20064;-76
2023/07/03 09:44:10;;;;;;;15.85;3.65;;;;;;;19.33;48.13;99368.56;5044414;28;20032;-76
2023/07/03 09:46:36;;;;;;;13.95;4.20;;;;;;;19.48;48.01;99384.59;5045951;28;20167;-76
2023/07/03 09:49:08;;;;;;;6.90;3.33;;;;;;;19.68;47.52;99379.41;5044960;28;20120;-75
2023/07/03 09:51:36;;;;;;;7.10;3.03;;;;;;;19.95;45.85;99380.00;5044920;28;20798;-76
2023/07/03 09:54:07;;;;;;;7.18;2.30;;;;;;;20.02;43.70;99367.59;5044437;28;20502;-76
2023/07/03 09:56:33;;;;;;;10.52;2.95;;;;;;;20.22;44.25;99379.81;5045102;28;20614;-76
2023/07/03 09:59:01;;;;;;;14.73;2.58;;;;;;;20.34;44.55;99378.25;5044937;28;20029;-77
2023/07/03 10:01:29;;;;;;;13.68;3.17;;;;;;;20.16;43.93;99373.69;5043489;28;20041;-76
2023/07/03 10:04:06;;;;;;;7.30;2.88;;;;;;;20.00;44.24;99381.78;5045097;28;20130;-77
2023/07/03 10:06:32;;;;;;;11.30;3.03;;;;;;;19.97;44.96;99381.66;5045538;28;20033;-76
2023/07/03 10:09:04;;;;;;;10.77;3.10;;;;;;;19.98;45.29;99378.53;5044373;28;20196;-76
2023/07/03 10:11:56;;;;;;;19.20;3.33;;;;;;;19.82;45.84;99375.56;5044651;28;20552;-76
2023/07/03 10:14:27;;;;;;;8.40;3.20;;;;;;;19.91;46.71;99384.59;5044644;28;20079;-76
2023/07/03 10:16:53;;;;;;;7.82;3.17;;;;;;;20.27;45.86;99378.81;5044840;28;20033;-75
2023/07/03 10:19:20;;;;;;;7.97;3.00;;;;;;;20.61;45.25;99382.38;5043812;28;20036;-76
2023/07/03 10:21:46;;;;;;;9.15;2.67;;;;;;;20.39;44.86;99389.91;5044236;28;20040;-77
2023/07/03 10:24:13;;;;;;;9.90;2.13;;;;;;;20.32;45.72;99388.88;5043909;28;20031;-77
2023/07/03 10:26:47;;;;;;;17.02;4.13;;;;;;;20.27;45.70;99403.72;5043710;28;20393;-80
2023/07/03 10:29:29;;;;;;;10.93;3.92;;;;;;;20.41;43.53;99401.47;5043925;28;20033;-83
2023/07/03 10:31:59;;;;;;;29.15;3.70;;;;;;;20.22;43.79;99390.09;5044216;28;20033;-81
2023/07/03 10:34:57;;;;;;;9.73;2.97;;;;;;;20.52;44.22;99407.38;5044318;28;20033;-79
2023/07/03 10:37:25;;;;;;;9.30;3.13;;;;;;;20.45;43.30;99395.22;5031927;28;20522;-78
2023/07/03 10:39:52;;;;;;;14.95;2.78;;;;;;;20.45;42.63;99396.03;5049119;28;20032;-77
2023/07/03 10:42:29;;;;;;;9.40;2.28;;;;;;;20.48;41.87;99400.88;5044709;28;20248;-78
2023/07/03 10:45:01;;;;;;;5.70;2.08;;;;;;;20.72;41.53;99398.53;5044363;28;20898;-78
2023/07/03 10:47:47;;;;;;;19.75;4.05;;;;;;;20.60;41.71;99408.44;5044444;28;20060;-78
2023/07/03 10:50:13;;;;;;;6.38;1.95;;;;;;;20.51;42.18;99405.75;5043557;28;20037;-78
2023/07/03 10:53:23;;;;;;;9.60;2.80;;;;;;;20.22;42.13;99406.69;5044349;28;20421;-79
2023/07/03 10:56:21;;;;;;;37.13;5.15;;;;;;;20.22;42.35;99409.47;5038109;28;20140;-78
2023/07/03 10:59:24;;;;;;;25.38;6.65;;;;;;;20.02;43.00;99423.75;5024649;28;20130;-76
2023/07/03 11:02:08;;;;;;;5.47;2.00;;;;;;;20.17;43.06;99410.47;5046656;28;20028;-76
2023/07/03 11:04:59;;;;;;;6.88;2.65;;;;;;;20.18;43.99;99409.31;5045616;28;21193;-76
2023/07/03 11:07:36;;;;;;;11.75;3.53;;;;;;;20.39;43.48;99406.53;5043615;28;20132;-76
2023/07/03 11:10:13;;;;;;;11.73;4.00;;;;;;;20.38;43.00;99413.19;5042894;28;20043;-75
2023/07/03 11:13:05;;;;;;;11.30;3.45;;;;;;;20.00;43.47;99403.09;5043828;28;20036;-76
2023/07/03 11:15:33;;;;;;;7.80;2.55;;;;;;;20.28;44.38;99408.91;5043459;28;20201;-77
2023/07/03 11:18:22;;;;;;;8.95;2.42;;;;;;;20.29;43.92;99409.72;5043015;28;20036;-76
2023/07/03 11:20:53;;;;;;;7.95;2.10;;;;;;;20.06;43.93;99412.81;5043657;28;20544;-76
2023/07/03 11:23:31;;;;;;;11.55;2.65;;;;;;;19.99;44.08;99412.53;5043466;28;20029;-77
2023/07/03 11:26:12;;;;;;;10.77;2.95;;;;;;;20.32;44.04;99411.78;5043357;28;20052;-77
2023/07/03 11:28:43;;;;;;;19.17;3.78;;;;;;;20.21;43.18;99402.28;5043559;28;20037;-76
2023/07/03 11:31:10;;;;;;;10.23;2.47;;;;;;;20.63;43.47;99416.06;5042856;28;20064;-76
2023/07/03 11:33:36;;;;;;;7.65;2.80;;;;;;;20.69;42.44;99405.56;5043278;28;20067;-76